Terminal Aerodrome Forecast
Issued by NWS

Current Version | Previous Version | Text Only | Print | Product List | Glossary On
Versions: 1 2 3 4 5 6 7 8 9 10 11 12 13 14 15 16 17 18 19 20 21 22
000
FTUS44 KBMX 250700 AAA
TAFTOI
TAF AMD
KTOI 250702Z 2507/2606 21003KT P6SM SCT050
     FM250900 00000KT 4SM BR SCT025
      TEMPO 2510/2513 2SM BR BKN025
     FM251400 26003KT P6SM VCSH BKN035
     FM260100 VRB03KT P6SM SCT035=

USA.gov is the U.S. government's official web portal to all federal, state and local government web resources and services.